sensor_id;sensor_type;location;lat;lon;timestamp;pressure;altitude;pressure_sealevel;temperature;humidity
71194;BME280;58903;47.210;8.618;2023-04-07T00:01:54;94223.44;;;27.12;38.45
71194;BME280;58903;47.210;8.618;2023-04-07T00:04:25;94210.69;;;27.09;38.38
71194;BME280;58903;47.210;8.618;2023-04-07T00:06:52;94215.69;;;27.11;38.35
71194;BME280;58903;47.210;8.618;2023-04-07T00:09:57;94214.41;;;27.12;38.39
71194;BME280;58903;47.210;8.618;2023-04-07T00:12:23;94215.16;;;27.12;38.05
71194;BME280;58903;47.210;8.618;2023-04-07T00:14:52;94208.47;;;27.08;38.61
71194;BME280;58903;47.210;8.618;2023-04-07T00:17:20;94213.44;;;27.09;38.28
71194;BME280;58903;47.210;8.618;2023-04-07T00:19:48;94209.41;;;27.10;38.42
71194;BME280;58903;47.210;8.618;2023-04-07T00:22:14;94214.94;;;27.10;38.59
71194;BME280;58903;47.210;8.618;2023-04-07T00:24:57;94207.19;;;27.09;38.61
71194;BME280;58903;47.210;8.618;2023-04-07T00:27:47;94210.91;;;27.11;38.62
71194;BME280;58903;47.210;8.618;2023-04-07T00:30:32;94199.88;;;27.11;38.61
71194;BME280;58903;47.210;8.618;2023-04-07T00:33:18;94190.09;;;27.10;38.45
71194;BME280;58903;47.210;8.618;2023-04-07T00:35:46;94194.34;;;27.11;38.92
71194;BME280;58903;47.210;8.618;2023-04-07T00:38:23;94182.56;;;27.11;38.27
71194;BME280;58903;47.210;8.618;2023-04-07T00:41:01;94172.78;;;27.10;38.84
71194;BME280;58903;47.210;8.618;2023-04-07T00:43:29;94170.03;;;27.10;38.57
71194;BME280;58903;47.210;8.618;2023-04-07T00:45:55;94165.22;;;27.10;38.82
71194;BME280;58903;47.210;8.618;2023-04-07T00:48:21;94162.03;;;27.06;38.62
71194;BME280;58903;47.210;8.618;2023-04-07T00:50:50;94157.06;;;27.05;38.76
71194;BME280;58903;47.210;8.618;2023-04-07T00:53:19;94160.34;;;27.03;38.42
71194;BME280;58903;47.210;8.618;2023-04-07T00:55:45;94159.59;;;27.03;38.73
71194;BME280;58903;47.210;8.618;2023-04-07T00:58:12;94150.56;;;27.02;38.87
71194;BME280;58903;47.210;8.618;2023-04-07T01:01:20;94148.03;;;27.04;38.79
71194;BME280;58903;47.210;8.618;2023-04-07T01:04:21;94142.28;;;27.02;38.83
71194;BME280;58903;47.210;8.618;2023-04-07T01:10:10;94129.97;;;27.03;38.19
71194;BME280;58903;47.210;8.618;2023-04-07T01:16:04;94124.25;;;27.01;38.67
71194;BME280;58903;47.210;8.618;2023-04-07T01:18:35;94122.97;;;27.02;38.28
71194;BME280;58903;47.210;8.618;2023-04-07T01:30:39;94107.44;;;26.99;38.64
71194;BME280;58903;47.210;8.618;2023-04-07T01:33:16;94112.47;;;27.01;38.59
71194;BME280;58903;47.210;8.618;2023-04-07T01:35:58;94104.94;;;27.01;39.04
71194;BME280;58903;47.210;8.618;2023-04-07T01:38:51;94103.44;;;27.00;38.52
71194;BME280;58903;47.210;8.618;2023-04-07T01:41:27;94103.97;;;26.99;38.98
71194;BME280;58903;47.210;8.618;2023-04-07T01:44:13;94101.72;;;26.97;38.67
71194;BME280;58903;47.210;8.618;2023-04-07T01:46:54;94101.91;;;26.99;38.66
71194;BME280;58903;47.210;8.618;2023-04-07T01:49:24;94100.22;;;26.96;38.81
71194;BME280;58903;47.210;8.618;2023-04-07T01:52:04;94111.72;;;27.00;38.53
71194;BME280;58903;47.210;8.618;2023-04-07T01:54:45;94092.38;;;27.00;38.56
71194;BME280;58903;47.210;8.618;2023-04-07T01:57:36;94099.16;;;26.99;38.40
71194;BME280;58903;47.210;8.618;2023-04-07T02:00:21;94094.41;;;27.00;38.57
71194;BME280;58903;47.210;8.618;2023-04-07T02:03:19;94094.59;;;27.02;38.60
71194;BME280;58903;47.210;8.618;2023-04-07T02:05:56;94085.59;;;27.01;38.51
71194;BME280;58903;47.210;8.618;2023-04-07T02:08:28;94084.53;;;27.04;38.82
71194;BME280;58903;47.210;8.618;2023-04-07T02:10:57;94079.00;;;27.04;38.33
71194;BME280;58903;47.210;8.618;2023-04-07T02:13:46;94091.34;;;27.03;38.58
71194;BME280;58903;47.210;8.618;2023-04-07T02:16:31;94083.78;;;27.04;38.62
71194;BME280;58903;47.210;8.618;2023-04-07T02:18:58;94084.53;;;27.04;38.15
71194;BME280;58903;47.210;8.618;2023-04-07T02:21:38;94080.81;;;27.02;38.24
71194;BME280;58903;47.210;8.618;2023-04-07T02:24:40;94072.03;;;27.03;38.59
71194;BME280;58903;47.210;8.618;2023-04-07T02:27:16;94070.72;;;27.04;38.54
71194;BME280;58903;47.210;8.618;2023-04-07T02:29:53;94069.25;;;27.03;38.55
71194;BME280;58903;47.210;8.618;2023-04-07T02:32:21;94052.69;;;27.03;38.49
71194;BME280;58903;47.210;8.618;2023-04-07T02:35:09;94065.41;;;27.06;38.56
71194;BME280;58903;47.210;8.618;2023-04-07T02:37:48;94056.72;;;27.02;38.34
71194;BME280;58903;47.210;8.618;2023-04-07T02:43:34;94043.66;;;27.03;38.73
71194;BME280;58903;47.210;8.618;2023-04-07T02:46:20;94043.13;;;27.04;38.24
71194;BME280;58903;47.210;8.618;2023-04-07T02:49:04;94034.09;;;27.04;38.50
71194;BME280;58903;47.210;8.618;2023-04-07T02:51:32;94032.09;;;27.04;38.37
71194;BME280;58903;47.210;8.618;2023-04-07T02:54:10;94027.84;;;27.03;38.95
71194;BME280;58903;47.210;8.618;2023-04-07T02:57:02;94025.81;;;27.04;38.72
71194;BME280;58903;47.210;8.618;2023-04-07T02:59:30;94016.81;;;27.03;38.22
71194;BME280;58903;47.210;8.618;2023-04-07T03:02:14;94020.63;;;27.00;38.22
71194;BME280;58903;47.210;8.618;2023-04-07T03:05:08;94016.06;;;27.03;38.46
71194;BME280;58903;47.210;8.618;2023-04-07T03:07:50;94008.31;;;27.01;38.05
71194;BME280;58903;47.210;8.618;2023-04-07T03:10:45;94003.53;;;27.02;38.33
71194;BME280;58903;47.210;8.618;2023-04-07T03:13:11;94004.06;;;27.00;38.55
71194;BME280;58903;47.210;8.618;2023-04-07T03:15:42;93992.25;;;27.00;38.44
71194;BME280;58903;47.210;8.618;2023-04-07T03:18:19;93991.75;;;27.01;38.43
71194;BME280;58903;47.210;8.618;2023-04-07T03:21:04;93997.28;;;27.01;38.36
71194;BME280;58903;47.210;8.618;2023-04-07T03:23:42;93998.75;;;27.02;38.69
71194;BME280;58903;47.210;8.618;2023-04-07T03:26:17;93990.47;;;27.02;38.28
71194;BME280;58903;47.210;8.618;2023-04-07T03:29:02;93991.75;;;27.01;38.50
71194;BME280;58903;47.210;8.618;2023-04-07T03:31:37;93987.50;;;27.00;39.20
71194;BME280;58903;47.210;8.618;2023-04-07T03:34:15;93990.25;;;27.00;38.76
71194;BME280;58903;47.210;8.618;2023-04-07T03:36:41;93983.97;;;27.00;38.36
71194;BME280;58903;47.210;8.618;2023-04-07T03:39:16;93975.50;;;26.98;38.54
71194;BME280;58903;47.210;8.618;2023-04-07T03:41:49;93976.25;;;26.98;38.12
71194;BME280;58903;47.210;8.618;2023-04-07T03:44:25;93974.22;;;26.99;38.49
71194;BME280;58903;47.210;8.618;2023-04-07T03:47:02;93972.19;;;26.99;38.48
71194;BME280;58903;47.210;8.618;2023-04-07T03:49:35;93970.72;;;26.98;38.51
71194;BME280;58903;47.210;8.618;2023-04-07T03:52:14;93971.47;;;26.99;38.48
71194;BME280;58903;47.210;8.618;2023-04-07T03:55:01;93974.75;;;26.97;38.28
71194;BME280;58903;47.210;8.618;2023-04-07T03:57:31;93963.69;;;26.97;37.95
71194;BME280;58903;47.210;8.618;2023-04-07T03:59:56;93969.22;;;26.97;38.63
71194;BME280;58903;47.210;8.618;2023-04-07T04:02:29;93969.97;;;26.98;38.47
71194;BME280;58903;47.210;8.618;2023-04-07T04:05:04;93962.44;;;26.98;38.49
71194;BME280;58903;47.210;8.618;2023-04-07T04:07:30;93964.44;;;26.98;38.70
71194;BME280;58903;47.210;8.618;2023-04-07T04:10:00;93963.69;;;26.97;38.88
71194;BME280;58903;47.210;8.618;2023-04-07T04:12:28;93969.22;;;26.97;38.84
71194;BME280;58903;47.210;8.618;2023-04-07T04:14:54;93968.81;;;26.93;38.59
71194;BME280;58903;47.210;8.618;2023-04-07T04:17:23;93967.75;;;26.96;38.46
71194;BME280;58903;47.210;8.618;2023-04-07T04:19:52;93964.03;;;26.94;38.99
71194;BME280;58903;47.210;8.618;2023-04-07T04:22:21;93964.78;;;26.94;38.70
71194;BME280;58903;47.210;8.618;2023-04-07T04:24:51;93948.22;;;26.94;38.24
71194;BME280;58903;47.210;8.618;2023-04-07T04:27:17;93948.22;;;26.94;38.86
71194;BME280;58903;47.210;8.618;2023-04-07T04:29:52;93948.00;;;26.92;37.83
71194;BME280;58903;47.210;8.618;2023-04-07T04:32:35;93952.25;;;26.93;38.09
71194;BME280;58903;47.210;8.618;2023-04-07T04:35:21;93949.47;;;26.93;38.22
71194;BME280;58903;47.210;8.618;2023-04-07T04:37:46;93947.25;;;26.92;38.88
71194;BME280;58903;47.210;8.618;2023-04-07T04:40:12;93951.50;;;26.92;38.75
71194;BME280;58903;47.210;8.618;2023-04-07T04:42:40;93953.31;;;26.90;38.95
71194;BME280;58903;47.210;8.618;2023-04-07T04:45:08;93958.50;;;26.94;38.51
71194;BME280;58903;47.210;8.618;2023-04-07T04:47:36;93953.53;;;26.92;38.46
71194;BME280;58903;47.210;8.618;2023-04-07T04:53:32;93954.78;;;26.91;38.63
71194;BME280;58903;47.210;8.618;2023-04-07T04:56:13;93943.75;;;26.91;39.09
71194;BME280;58903;47.210;8.618;2023-04-07T04:58:42;93945.75;;;26.90;38.62
71194;BME280;58903;47.210;8.618;2023-04-07T05:01:11;93938.78;;;26.89;38.49
71194;BME280;58903;47.210;8.618;2023-04-07T05:03:38;93935.25;;;26.89;38.60
71194;BME280;58903;47.210;8.618;2023-04-07T05:06:05;93932.06;;;26.85;38.75
71194;BME280;58903;47.210;8.618;2023-04-07T05:08:33;93939.09;;;26.86;38.95
71194;BME280;58903;47.210;8.618;2023-04-07T05:11:00;93938.56;;;26.87;38.41
71194;BME280;58903;47.210;8.618;2023-04-07T05:13:28;93934.84;;;26.85;38.79
71194;BME280;58903;47.210;8.618;2023-04-07T05:16:26;93940.56;;;26.87;38.76
71194;BME280;58903;47.210;8.618;2023-04-07T05:18:54;93942.56;;;26.86;38.84
71194;BME280;58903;47.210;8.618;2023-04-07T05:21:39;93943.13;;;26.85;38.53
71194;BME280;58903;47.210;8.618;2023-04-07T05:24:36;93947.69;;;26.82;38.83
71194;BME280;58903;47.210;8.618;2023-04-07T05:27:31;93940.16;;;26.83;38.67
71194;BME280;58903;47.210;8.618;2023-04-07T05:30:14;93931.13;;;26.82;38.81
71194;BME280;58903;47.210;8.618;2023-04-07T05:32:40;93935.88;;;26.82;38.68
71194;BME280;58903;47.210;8.618;2023-04-07T05:38:30;93934.72;;;26.90;38.59
71194;BME280;58903;47.210;8.618;2023-04-07T05:40:55;93927.72;;;26.89;38.40
71194;BME280;58903;47.210;8.618;2023-04-07T05:43:38;93924.44;;;26.91;38.47
71194;BME280;58903;47.210;8.618;2023-04-07T05:46:14;93924.66;;;26.93;38.47
71194;BME280;58903;47.210;8.618;2023-04-07T05:49:09;93923.38;;;26.94;38.61
71194;BME280;58903;47.210;8.618;2023-04-07T05:51:41;93921.38;;;26.95;38.74
71194;BME280;58903;47.210;8.618;2023-04-07T05:54:17;93903.84;;;26.92;39.30
71194;BME280;58903;47.210;8.618;2023-04-07T05:56:43;93906.06;;;26.94;38.71
71194;BME280;58903;47.210;8.618;2023-04-07T05:59:25;93903.09;;;26.92;38.91
71194;BME280;58903;47.210;8.618;2023-04-07T06:01:51;93906.81;;;26.94;38.49
71194;BME280;58903;47.210;8.618;2023-04-07T06:04:27;93906.63;;;26.92;39.16
71194;BME280;58903;47.210;8.618;2023-04-07T06:07:03;93908.09;;;26.93;38.92
71194;BME280;58903;47.210;8.618;2023-04-07T06:09:43;93909.59;;;26.94;38.61
71194;BME280;58903;47.210;8.618;2023-04-07T06:12:22;93904.38;;;26.90;38.92
71194;BME280;58903;47.210;8.618;2023-04-07T06:15:27;93910.63;;;26.91;39.08
71194;BME280;58903;47.210;8.618;2023-04-07T06:17:52;93911.19;;;26.89;38.69
71194;BME280;58903;47.210;8.618;2023-04-07T06:20:37;93910.63;;;26.91;39.40
71194;BME280;58903;47.210;8.618;2023-04-07T06:23:13;93904.56;;;26.92;38.94
71194;BME280;58903;47.210;8.618;2023-04-07T06:26:00;93910.44;;;26.89;39.48
71194;BME280;58903;47.210;8.618;2023-04-07T06:28:26;93903.22;;;26.86;39.13
71194;BME280;58903;47.210;8.618;2023-04-07T06:30:53;93903.00;;;26.84;39.14
71194;BME280;58903;47.210;8.618;2023-04-07T06:33:19;93901.09;;;26.79;39.56
71194;BME280;58903;47.210;8.618;2023-04-07T06:35:50;93908.09;;;26.80;39.42
71194;BME280;58903;47.210;8.618;2023-04-07T06:38:16;93906.06;;;26.80;39.94
71194;BME280;58903;47.210;8.618;2023-04-07T06:40:42;93898.00;;;26.82;39.67
71194;BME280;58903;47.210;8.618;2023-04-07T06:43:09;93895.38;;;26.77;39.87
71194;BME280;58903;47.210;8.618;2023-04-07T06:45:37;93912.56;;;26.83;39.70
71194;BME280;58903;47.210;8.618;2023-04-07T06:48:03;93903.75;;;26.84;39.76
71194;BME280;58903;47.210;8.618;2023-04-07T06:50:29;93902.78;;;26.82;40.03
71194;BME280;58903;47.210;8.618;2023-04-07T06:52:55;93892.41;;;26.88;40.00
71194;BME280;58903;47.210;8.618;2023-04-07T06:55:23;93893.66;;;26.87;39.73
71194;BME280;58903;47.210;8.618;2023-04-07T06:57:49;93893.03;;;26.81;39.40
71194;BME280;58903;47.210;8.618;2023-04-07T07:00:26;93898.84;;;26.77;39.65
71194;BME280;58903;47.210;8.618;2023-04-07T07:03:31;93902.34;;;26.78;40.50
71194;BME280;58903;47.210;8.618;2023-04-07T07:06:26;93894.94;;;26.73;40.29
71194;BME280;58903;47.210;8.618;2023-04-07T07:08:55;93894.94;;;26.73;40.17
71194;BME280;58903;47.210;8.618;2023-04-07T07:11:42;93896.41;;;26.74;40.05
71194;BME280;58903;47.210;8.618;2023-04-07T07:14:08;93902.34;;;26.78;40.53
71194;BME280;58903;47.210;8.618;2023-04-07T07:16:33;93905.22;;;26.85;39.62
71194;BME280;58903;47.210;8.618;2023-04-07T07:18:59;93901.72;;;26.85;39.86
71194;BME280;58903;47.210;8.618;2023-04-07T07:21:25;93905.44;;;26.87;39.79
71194;BME280;58903;47.210;8.618;2023-04-07T07:23:52;93903.94;;;26.86;39.61
71194;BME280;58903;47.210;8.618;2023-04-07T07:26:23;93912.13;;;26.92;40.12
71194;BME280;58903;47.210;8.618;2023-04-07T07:28:54;93898.75;;;26.96;39.93
71194;BME280;58903;47.210;8.618;2023-04-07T07:31:19;93898.53;;;26.94;39.60
71194;BME280;58903;47.210;8.618;2023-04-07T07:33:45;93902.56;;;26.93;39.73
71194;BME280;58903;47.210;8.618;2023-04-07T07:36:13;93905.13;;;26.91;39.89
71194;BME280;58903;47.210;8.618;2023-04-07T07:38:39;93908.94;;;26.88;40.37
71194;BME280;58903;47.210;8.618;2023-04-07T07:41:10;93907.25;;;26.85;39.67
71194;BME280;58903;47.210;8.618;2023-04-07T07:43:36;93901.72;;;26.85;39.59
71194;BME280;58903;47.210;8.618;2023-04-07T07:46:02;93908.50;;;26.84;39.70
71194;BME280;58903;47.210;8.618;2023-04-07T07:48:28;93905.75;;;26.84;40.09
71194;BME280;58903;47.210;8.618;2023-04-07T07:50:54;93914.25;;;26.86;40.26
71194;BME280;58903;47.210;8.618;2023-04-07T07:53:21;93923.81;;;26.85;39.90
71194;BME280;58903;47.210;8.618;2023-04-07T07:55:50;93920.28;;;26.84;39.91
71194;BME280;58903;47.210;8.618;2023-04-07T07:58:25;93929.31;;;26.85;40.37
71194;BME280;58903;47.210;8.618;2023-04-07T08:00:56;93932.28;;;26.87;39.76
71194;BME280;58903;47.210;8.618;2023-04-07T08:03:38;93934.84;;;26.85;40.30
71194;BME280;58903;47.210;8.618;2023-04-07T08:06:06;93935.59;;;26.85;39.88
71194;BME280;58903;47.210;8.618;2023-04-07T08:08:35;93941.09;;;26.85;40.26
71194;BME280;58903;47.210;8.618;2023-04-07T08:11:10;93945.88;;;26.85;40.06
71194;BME280;58903;47.210;8.618;2023-04-07T08:13:43;93954.16;;;26.85;39.85
71194;BME280;58903;47.210;8.618;2023-04-07T08:16:12;93961.16;;;26.86;40.17
71194;BME280;58903;47.210;8.618;2023-04-07T08:18:42;93969.66;;;26.88;40.29
71194;BME280;58903;47.210;8.618;2023-04-07T08:21:08;93973.69;;;26.87;40.27
71194;BME280;58903;47.210;8.618;2023-04-07T08:23:35;93973.91;;;26.89;40.01
71194;BME280;58903;47.210;8.618;2023-04-07T08:26:08;93985.69;;;26.89;39.78
71194;BME280;58903;47.210;8.618;2023-04-07T08:28:41;93998.94;;;26.91;39.75
71194;BME280;58903;47.210;8.618;2023-04-07T08:31:07;93990.47;;;26.89;39.60
71194;BME280;58903;47.210;8.618;2023-04-07T08:33:33;93995.22;;;26.88;40.46
71194;BME280;58903;47.210;8.618;2023-04-07T08:36:00;94002.78;;;26.88;40.30
71194;BME280;58903;47.210;8.618;2023-04-07T08:38:25;94002.56;;;26.86;40.04
71194;BME280;58903;47.210;8.618;2023-04-07T08:40:58;94000.75;;;26.88;39.64
71194;BME280;58903;47.210;8.618;2023-04-07T08:43:28;93995.75;;;26.87;39.81
71194;BME280;58903;47.210;8.618;2023-04-07T08:46:01;93994.50;;;26.88;39.83
71194;BME280;58903;47.210;8.618;2023-04-07T08:48:29;93992.03;;;26.84;39.77
71194;BME280;58903;47.210;8.618;2023-04-07T08:51:05;94007.00;;;26.89;39.97
71194;BME280;58903;47.210;8.618;2023-04-07T08:53:46;94013.28;;;26.89;39.47
71194;BME280;58903;47.210;8.618;2023-04-07T08:56:22;94005.75;;;26.90;39.70
71194;BME280;58903;47.210;8.618;2023-04-07T08:58:50;94017.00;;;26.92;39.64
71194;BME280;58903;47.210;8.618;2023-04-07T09:01:19;94014.03;;;26.90;39.91
71194;BME280;58903;47.210;8.618;2023-04-07T09:03:50;94007.00;;;26.89;39.85
71194;BME280;58903;47.210;8.618;2023-04-07T09:06:26;94018.06;;;26.89;40.57
71194;BME280;58903;47.210;8.618;2023-04-07T09:09:07;94020.50;;;26.79;41.32
71194;BME280;58903;47.210;8.618;2023-04-07T09:11:38;94032.88;;;26.73;41.98
71194;BME280;58903;47.210;8.618;2023-04-07T09:14:10;94025.41;;;26.68;42.05
71194;BME280;58903;47.210;8.618;2023-04-07T09:16:38;94032.19;;;26.67;41.61
71194;BME280;58903;47.210;8.618;2023-04-07T09:19:16;94039.75;;;26.66;41.83
71194;BME280;58903;47.210;8.618;2023-04-07T09:21:53;94030.72;;;26.66;41.30
71194;BME280;58903;47.210;8.618;2023-04-07T09:24:28;94030.72;;;26.66;41.85
71194;BME280;58903;47.210;8.618;2023-04-07T09:27:15;94036.66;;;26.70;41.57
71194;BME280;58903;47.210;8.618;2023-04-07T09:29:46;94035.16;;;26.69;42.53
71194;BME280;58903;47.210;8.618;2023-04-07T09:32:35;94040.91;;;26.71;42.14
71194;BME280;58903;47.210;8.618;2023-04-07T09:35:06;94040.91;;;26.71;42.43
71194;BME280;58903;47.210;8.618;2023-04-07T09:37:37;94039.75;;;26.66;43.04
71194;BME280;58903;47.210;8.618;2023-04-07T09:40:07;94047.06;;;26.64;42.91
71194;BME280;58903;47.210;8.618;2023-04-07T09:42:33;94043.75;;;26.65;42.77
71194;BME280;58903;47.210;8.618;2023-04-07T09:45:01;94046.41;;;26.71;42.68
71194;BME280;58903;47.210;8.618;2023-04-07T09:47:28;94047.41;;;26.73;42.02
71194;BME280;58903;47.210;8.618;2023-04-07T09:49:58;94042.84;;;26.76;41.97
71194;BME280;58903;47.210;8.618;2023-04-07T09:52:49;94052.09;;;26.78;41.61
71194;BME280;58903;47.210;8.618;2023-04-07T09:55:22;94049.56;;;26.80;41.70
71194;BME280;58903;47.210;8.618;2023-04-07T09:57:56;94055.06;;;26.80;41.75
71194;BME280;58903;47.210;8.618;2023-04-07T10:00:29;94048.81;;;26.80;41.86
71194;BME280;58903;47.210;8.618;2023-04-07T10:02:57;94037.03;;;26.79;41.82
71194;BME280;58903;47.210;8.618;2023-04-07T10:05:24;94040.75;;;26.82;41.59
71194;BME280;58903;47.210;8.618;2023-04-07T10:07:59;94047.75;;;26.83;41.21
71194;BME280;58903;47.210;8.618;2023-04-07T10:10:29;94039.06;;;26.79;41.54
71194;BME280;58903;47.210;8.618;2023-04-07T10:12:59;94042.25;;;26.83;43.01
71194;BME280;58903;47.210;8.618;2023-04-07T10:15:29;94048.19;;;26.87;42.25
71194;BME280;58903;47.210;8.618;2023-04-07T10:17:57;94040.88;;;26.89;42.03
71194;BME280;58903;47.210;8.618;2023-04-07T10:20:32;94041.63;;;26.90;41.40
71194;BME280;58903;47.210;8.618;2023-04-07T10:23:20;94044.19;;;26.88;41.25
71194;BME280;58903;47.210;8.618;2023-04-07T10:25:54;94038.66;;;26.88;40.97
71194;BME280;58903;47.210;8.618;2023-04-07T10:28:37;94048.41;;;26.89;40.73
71194;BME280;58903;47.210;8.618;2023-04-07T10:31:07;94059.22;;;26.87;40.27
71194;BME280;58903;47.210;8.618;2023-04-07T10:33:48;94051.28;;;26.83;40.49
71194;BME280;58903;47.210;8.618;2023-04-07T10:36:22;94059.78;;;26.85;40.37
71194;BME280;58903;47.210;8.618;2023-04-07T10:41:51;94063.78;;;26.84;40.04
71194;BME280;58903;47.210;8.618;2023-04-07T10:44:50;94060.28;;;26.84;40.26
71194;BME280;58903;47.210;8.618;2023-04-07T10:47:21;94066.25;;;26.88;40.79
71194;BME280;58903;47.210;8.618;2023-04-07T10:53:31;94069.84;;;26.83;40.81
71194;BME280;58903;47.210;8.618;2023-04-07T10:56:10;94073.56;;;26.85;40.83
71194;BME280;58903;47.210;8.618;2023-04-07T10:58:43;94075.34;;;26.83;40.93
71194;BME280;58903;47.210;8.618;2023-04-07T11:01:33;94084.25;;;26.76;41.38
71194;BME280;58903;47.210;8.618;2023-04-07T11:04:09;94087.00;;;26.76;40.88
71194;BME280;58903;47.210;8.618;2023-04-07T11:06:46;94094.03;;;26.77;41.09
71194;BME280;58903;47.210;8.618;2023-04-07T11:09:24;94097.00;;;26.79;41.03
71194;BME280;58903;47.210;8.618;2023-04-07T11:12:03;94098.19;;;26.83;40.54
71194;BME280;58903;47.210;8.618;2023-04-07T11:14:43;94097.13;;;26.86;40.39
71194;BME280;58903;47.210;8.618;2023-04-07T11:17:13;94103.38;;;26.87;40.15
71194;BME280;58903;47.210;8.618;2023-04-07T11:20:03;94104.88;;;26.88;39.80
71194;BME280;58903;47.210;8.618;2023-04-07T11:22:58;94105.59;;;26.88;39.89
71194;BME280;58903;47.210;8.618;2023-04-07T11:25:33;94109.66;;;26.87;39.59
71194;BME280;58903;47.210;8.618;2023-04-07T11:28:20;94110.41;;;26.88;39.56
71194;BME280;58903;47.210;8.618;2023-04-07T11:30:52;94117.94;;;26.87;40.19
71194;BME280;58903;47.210;8.618;2023-04-07T11:33:24;94121.22;;;26.86;39.74
71194;BME280;58903;47.210;8.618;2023-04-07T11:35:56;94126.22;;;26.87;39.84
71194;BME280;58903;47.210;8.618;2023-04-07T11:38:26;94123.13;;;26.91;40.02
71194;BME280;58903;47.210;8.618;2023-04-07T11:41:10;94124.63;;;26.92;40.16
71194;BME280;58903;47.210;8.618;2023-04-07T11:43:38;94122.59;;;26.92;40.06
71194;BME280;58903;47.210;8.618;2023-04-07T11:46:12;94112.31;;;26.93;40.13
71194;BME280;58903;47.210;8.618;2023-04-07T11:48:40;94121.25;;;26.99;39.58
71194;BME280;58903;47.210;8.618;2023-04-07T11:51:18;94113.72;;;27.00;39.60
71194;BME280;58903;47.210;8.618;2023-04-07T11:53:54;94119.66;;;27.04;39.97
71194;BME280;58903;47.210;8.618;2023-04-07T11:56:23;94128.16;;;27.06;39.87
71194;BME280;58903;47.210;8.618;2023-04-07T11:59:21;94121.38;;;27.07;39.80
71194;BME280;58903;47.210;8.618;2023-04-07T12:01:48;94120.13;;;27.08;39.62
71194;BME280;58903;47.210;8.618;2023-04-07T12:04:18;94124.38;;;27.09;39.87
71194;BME280;58903;47.210;8.618;2023-04-07T12:06:47;94122.34;;;27.09;39.63
71194;BME280;58903;47.210;8.618;2023-04-07T12:09:36;94121.28;;;27.12;39.71
71194;BME280;58903;47.210;8.618;2023-04-07T12:12:37;94114.50;;;27.13;40.21
71194;BME280;58903;47.210;8.618;2023-04-07T12:15:08;94115.25;;;27.14;39.72
71194;BME280;58903;47.210;8.618;2023-04-07T12:17:37;94111.94;;;27.15;39.42
71194;BME280;58903;47.210;8.618;2023-04-07T12:20:09;94116.22;;;27.16;39.75
71194;BME280;58903;47.210;8.618;2023-04-07T12:22:37;94110.69;;;27.16;39.65
71194;BME280;58903;47.210;8.618;2023-04-07T12:25:12;94110.91;;;27.18;39.67
71194;BME280;58903;47.210;8.618;2023-04-07T12:27:46;94113.97;;;27.15;39.82
71194;BME280;58903;47.210;8.618;2023-04-07T12:30:20;94111.94;;;27.15;39.63
71194;BME280;58903;47.210;8.618;2023-04-07T12:32:47;94121.53;;;27.14;40.12
71194;BME280;58903;47.210;8.618;2023-04-07T12:35:42;94120.25;;;27.15;39.86
71194;BME280;58903;47.210;8.618;2023-04-07T12:38:37;94116.00;;;27.14;40.04
71194;BME280;58903;47.210;8.618;2023-04-07T12:41:13;94111.53;;;27.11;40.14
71194;BME280;58903;47.210;8.618;2023-04-07T12:43:49;94110.03;;;27.10;40.52
71194;BME280;58903;47.210;8.618;2023-04-07T12:46:34;94116.00;;;27.14;40.07
71194;BME280;58903;47.210;8.618;2023-04-07T12:49:00;94111.94;;;27.15;40.07
71194;BME280;58903;47.210;8.618;2023-04-07T12:51:28;94107.72;;;27.14;40.00
71194;BME280;58903;47.210;8.618;2023-04-07T12:54:05;94112.91;;;27.18;40.27
71194;BME280;58903;47.210;8.618;2023-04-07T12:56:31;94119.19;;;27.18;39.56
71194;BME280;58903;47.210;8.618;2023-04-07T13:02:09;94116.44;;;27.18;40.26
71194;BME280;58903;47.210;8.618;2023-04-07T13:08:04;94111.00;;;27.13;40.39
71194;BME280;58903;47.210;8.618;2023-04-07T13:10:32;94117.69;;;27.17;40.22
71194;BME280;58903;47.210;8.618;2023-04-07T13:13:11;94113.66;;;27.18;40.09
71194;BME280;58903;47.210;8.618;2023-04-07T13:15:53;94104.84;;;27.20;40.04
71194;BME280;58903;47.210;8.618;2023-04-07T13:18:40;94101.56;;;27.21;40.25
71194;BME280;58903;47.210;8.618;2023-04-07T13:21:06;94111.34;;;27.22;40.03
71194;BME280;58903;47.210;8.618;2023-04-07T13:24:10;94119.41;;;27.20;39.53
71194;BME280;58903;47.210;8.618;2023-04-07T13:27:05;94109.84;;;27.21;40.19
71194;BME280;58903;47.210;8.618;2023-04-07T13:29:32;94107.59;;;27.20;40.03
71194;BME280;58903;47.210;8.618;2023-04-07T13:32:20;94116.44;;;27.18;40.20
71194;BME280;58903;47.210;8.618;2023-04-07T13:34:46;94114.19;;;27.17;40.13
71194;BME280;58903;47.210;8.618;2023-04-07T13:37:14;94113.75;;;27.13;39.98
71194;BME280;58903;47.210;8.618;2023-04-07T13:40:00;94109.81;;;27.08;39.64
71194;BME280;58903;47.210;8.618;2023-04-07T13:42:28;94110.03;;;27.10;40.25
71194;BME280;58903;47.210;8.618;2023-04-07T13:44:54;94103.78;;;27.10;40.24
71194;BME280;58903;47.210;8.618;2023-04-07T13:47:23;94097.78;;;27.06;39.97
71194;BME280;58903;47.210;8.618;2023-04-07T13:49:49;94099.84;;;27.05;40.52
71194;BME280;58903;47.210;8.618;2023-04-07T13:52:18;94099.50;;;27.09;40.15
71194;BME280;58903;47.210;8.618;2023-04-07T13:54:45;94099.84;;;27.05;40.49
71194;BME280;58903;47.210;8.618;2023-04-07T13:57:30;94099.84;;;27.05;40.09
71194;BME280;58903;47.210;8.618;2023-04-07T14:00:17;94103.31;;;27.06;39.90
71194;BME280;58903;47.210;8.618;2023-04-07T14:02:44;94102.59;;;27.05;39.81
71194;BME280;58903;47.210;8.618;2023-04-07T14:05:15;94106.31;;;27.08;39.72
71194;BME280;58903;47.210;8.618;2023-04-07T14:07:42;94098.03;;;27.08;39.63
71194;BME280;58903;47.210;8.618;2023-04-07T14:10:15;94098.03;;;27.08;39.99
71194;BME280;58903;47.210;8.618;2023-04-07T14:12:41;94098.56;;;27.06;39.63
71194;BME280;58903;47.210;8.618;2023-04-07T14:15:09;94091.56;;;27.05;39.87
71194;BME280;58903;47.210;8.618;2023-04-07T14:17:35;94094.59;;;27.02;40.24
71194;BME280;58903;47.210;8.618;2023-04-07T14:20:03;94091.84;;;27.02;39.61